Terminal Aerodrome Forecast
Issued by NWS

Home | Current Version | Previous Version | Graphics & Text | Print | Product List | Glossary On
Versions: 1 2 3 4 5 6 7 8 9 10 11 12 13 14
000
FTUS42 KMHX 271100 RRA
TAFISO
TAF
KISO 271142Z 2712/2812 34010G18KT P6SM BKN020 OVC045
     FM271700 33010G16KT P6SM SCT015 OVC025
     FM271900 34008KT P6SM OVC035
     FM272100 32005KT P6SM SCT040
      AMD LTD TO CLD VIS AND WIND=

USA.gov is the U.S. government's official web portal to all federal, state and local government web resources and services.